Airfield :
LOGIN :

Register | Disclaimer

   EN    FR    IT 

 










Legend :    VFR   Marginal VFR   IFR   Intensive IFR   Very Intensive IFR
Visi :
Ceiling :
>= 8 km
>= 3000ft
5 to 8 km
1000 to 3000 ft
1500m to 5 km
500 to 1000 ft
800 to 1500m
200 to 500 ft
< 800m
< 200 ft
Symbols :   Thunderstorms  Fog  Heavy snow  Heavy precipitations  Wind > 20 kt
SIGMETs :     Misc.  Thunderstorms  Icing  Turbulence  Mountain Waves  Volcanic Ashes






- Airport Elevation : 778 ft
- IATA code : BRQ


LKTB - Brno-Turany

CURRENT METAR :
  • 280630Z VRB01KT 9000 NSC 08/06 Q1016 NOSIG

EXPIRED METARs :
  • 280600Z VRB02KT CAVOK 09/06 Q1016 NOSIG
  • 280530Z 08005KT CAVOK 08/06 Q1015 NOSIG
  • 280500Z 08006KT CAVOK 07/05 Q1015 NOSIG
  • 280430Z 08005KT CAVOK 09/07 Q1015 NOSIG
  • 280400Z 08006KT 9000 FEW019 09/07 Q1015 NOSIG
  • 280330Z 07006KT 8000 SCT020 09/07 Q1015 NOSIG
  • 280300Z 07005KT 9000 FEW022 10/07 Q1015 NOSIG
  • 280230Z 08007KT 8000 FEW023 09/07 Q1015 NOSIG
  • 280200Z 08006KT 9000 NSC 10/07 Q1014 NOSIG
  • 280130Z 08005KT CAVOK 10/07 Q1014 NOSIG

TAF TAF LKTB
Valid from the 28 at 06:00 until the 29 at 06:00 UTC


280500Z 2806/2906 10006KT 9999 BKN040
TEMPO 2806/2807 5000 BR SCT010
BECMG 2807/2809 20008KT
BECMG 2813/2815 35010KT



MET'MAP, your aeronautical weather chart ! - Copyright ORBIFLY December 2007 - Disclaimer

ORBIFLY MET'MAP TEAM :

Programming & Development : Alexandra Zaïnal
Original concept : Baudouin d'Aumeries
Technical & hardware support : Manuel Goepfert
Assistance : Marc-Olivier Méhu




SOURCES & CREDITS :

   NOAA